Baldwin City, Kansas
Current Conditions -  °F | °C
As of 11:52 PM on Wednesday 22 Oct 2014 (Local Time) from KLWC Reporting Station
Few Clouds Few Clouds  
Wind Chill: 61°   Ceiling: Unl
Heat Index: 61°   Visibility: 8mi
Dew Point: 53°   Wind: 9mph
Humidity: 75%   Direction: 140°SE
Pressure: 30.09"   Gusts: NA
Location:  38.78°N, 95.19°W
Report Text: KLWC 230452Z AUTO 14008KT 8SM FEW055 FEW075 16/12 A3009 RMK AO2 SLP186 T01610117
Loading
Personal Weather Stations






























Interactive Weather Map
Tropical Storm Tracking
New forecast layout! Learn more

10-Day Weather Forecast

Advertisements
Track Severe Weather on mobile